sensor_id;sensor_type;location;lat;lon;timestamp;pressure;altitude;pressure_sealevel;temperature;humidity
74790;BME280;63318;52.406;13.416;2022-09-17T00:01:08;99874.65;;;12.12;76.98
74790;BME280;63318;52.406;13.416;2022-09-17T00:03:37;99875.20;;;12.12;76.95
74790;BME280;63318;52.406;13.416;2022-09-17T00:06:08;99877.39;;;12.12;77.26
74790;BME280;63318;52.406;13.416;2022-09-17T00:08:38;99882.87;;;12.13;77.43
74790;BME280;63318;52.406;13.416;2022-09-17T00:11:09;99887.05;;;12.16;77.59
74790;BME280;63318;52.406;13.416;2022-09-17T00:13:38;99886.07;;;12.18;77.69
74790;BME280;63318;52.406;13.416;2022-09-17T00:16:07;99886.41;;;12.21;77.98
74790;BME280;63318;52.406;13.416;2022-09-17T00:18:35;99890.92;;;12.21;78.07
74790;BME280;63318;52.406;13.416;2022-09-17T00:21:03;99895.90;;;12.16;78.25
74790;BME280;63318;52.406;13.416;2022-09-17T00:23:31;99893.92;;;12.15;78.25
74790;BME280;63318;52.406;13.416;2022-09-17T00:26:03;99897.44;;;12.14;78.23
74790;BME280;63318;52.406;13.416;2022-09-17T00:28:31;99900.45;;;12.14;78.20
74790;BME280;63318;52.406;13.416;2022-09-17T00:31:00;99899.25;;;12.12;78.20
74790;BME280;63318;52.406;13.416;2022-09-17T00:33:28;99905.20;;;12.10;78.14
74790;BME280;63318;52.406;13.416;2022-09-17T00:36:01;99908.33;;;12.06;78.13
74790;BME280;63318;52.406;13.416;2022-09-17T00:38:30;99906.51;;;12.08;78.17
74790;BME280;63318;52.406;13.416;2022-09-17T00:40:58;99910.06;;;12.18;77.71
74790;BME280;63318;52.406;13.416;2022-09-17T00:43:41;99912.36;;;12.17;77.80
74790;BME280;63318;52.406;13.416;2022-09-17T00:46:20;99908.65;;;12.19;78.10
74790;BME280;63318;52.406;13.416;2022-09-17T00:48:50;99907.40;;;12.23;78.26
74790;BME280;63318;52.406;13.416;2022-09-17T00:51:21;99908.12;;;12.27;78.29
74790;BME280;63318;52.406;13.416;2022-09-17T00:53:52;99911.73;;;12.31;78.40
74790;BME280;63318;52.406;13.416;2022-09-17T00:56:23;99914.77;;;12.33;78.53
74790;BME280;63318;52.406;13.416;2022-09-17T00:58:53;99919.15;;;12.36;78.49
74790;BME280;63318;52.406;13.416;2022-09-17T01:01:22;99926.67;;;12.33;78.72
74790;BME280;63318;52.406;13.416;2022-09-17T01:03:50;99926.80;;;12.30;78.84
74790;BME280;63318;52.406;13.416;2022-09-17T01:06:24;99929.59;;;12.27;78.76
74790;BME280;63318;52.406;13.416;2022-09-17T01:09:06;99933.77;;;12.25;78.96
74790;BME280;63318;52.406;13.416;2022-09-17T01:11:50;99932.80;;;12.24;78.94
74790;BME280;63318;52.406;13.416;2022-09-17T01:14:34;99931.01;;;12.22;78.98
74790;BME280;63318;52.406;13.416;2022-09-17T01:17:14;99935.61;;;12.19;78.87
74790;BME280;63318;52.406;13.416;2022-09-17T01:20:14;99933.24;;;12.21;78.64
74790;BME280;63318;52.406;13.416;2022-09-17T01:22:58;99937.95;;;12.31;78.29
74790;BME280;63318;52.406;13.416;2022-09-17T01:25:40;99937.80;;;12.30;78.37
74790;BME280;63318;52.406;13.416;2022-09-17T01:28:33;99936.62;;;12.32;78.49
74790;BME280;63318;52.406;13.416;2022-09-17T01:31:30;99941.58;;;12.35;78.71
74790;BME280;63318;52.406;13.416;2022-09-17T01:33:59;99946.31;;;12.38;78.88
74790;BME280;63318;52.406;13.416;2022-09-17T01:36:45;99944.52;;;12.38;78.85
74790;BME280;63318;52.406;13.416;2022-09-17T01:39:30;99945.85;;;12.42;78.87
74790;BME280;63318;52.406;13.416;2022-09-17T01:42:08;99947.67;;;12.42;78.98
74790;BME280;63318;52.406;13.416;2022-09-17T01:44:43;99946.86;;;12.38;79.13
74790;BME280;63318;52.406;13.416;2022-09-17T01:47:16;99943.55;;;12.36;79.01
74790;BME280;63318;52.406;13.416;2022-09-17T01:49:47;99941.14;;;12.34;79.06
74790;BME280;63318;52.406;13.416;2022-09-17T01:52:16;99944.73;;;12.32;78.98
74790;BME280;63318;52.406;13.416;2022-09-17T01:54:47;99946.81;;;12.28;79.02
74790;BME280;63318;52.406;13.416;2022-09-17T01:57:21;99949.89;;;12.25;79.12
74790;BME280;63318;52.406;13.416;2022-09-17T01:59:57;99948.60;;;12.22;79.05
74790;BME280;63318;52.406;13.416;2022-09-17T02:02:31;99950.70;;;12.23;79.16
74790;BME280;63318;52.406;13.416;2022-09-17T02:05:04;99950.14;;;12.33;78.70
74790;BME280;63318;52.406;13.416;2022-09-17T02:07:38;99958.73;;;12.32;78.74
74790;BME280;63318;52.406;13.416;2022-09-17T02:10:11;99962.84;;;12.32;78.89
74790;BME280;63318;52.406;13.416;2022-09-17T02:12:44;99965.11;;;12.36;78.95
74790;BME280;63318;52.406;13.416;2022-09-17T02:15:19;99969.89;;;12.40;79.12
74790;BME280;63318;52.406;13.416;2022-09-17T02:17:53;99965.48;;;12.44;79.19
74790;BME280;63318;52.406;13.416;2022-09-17T02:20:29;99970.50;;;12.47;79.29
74790;BME280;63318;52.406;13.416;2022-09-17T02:23:06;99969.70;;;12.45;79.46
74790;BME280;63318;52.406;13.416;2022-09-17T02:25:38;99971.84;;;12.47;79.54
74790;BME280;63318;52.406;13.416;2022-09-17T02:28:13;99969.08;;;12.48;79.48
74790;BME280;63318;52.406;13.416;2022-09-17T02:30:44;99965.46;;;12.48;79.32
74790;BME280;63318;52.406;13.416;2022-09-17T02:33:14;99965.71;;;12.47;79.35
74790;BME280;63318;52.406;13.416;2022-09-17T02:35:42;99964.79;;;12.45;79.41
74790;BME280;63318;52.406;13.416;2022-09-17T02:38:11;99963.37;;;12.43;79.40
74790;BME280;63318;52.406;13.416;2022-09-17T02:40:45;99963.25;;;12.47;79.31
74790;BME280;63318;52.406;13.416;2022-09-17T02:43:19;99964.17;;;12.58;78.78
74790;BME280;63318;52.406;13.416;2022-09-17T02:46:00;99965.08;;;12.60;78.93
74790;BME280;63318;52.406;13.416;2022-09-17T02:49:03;99966.51;;;12.61;79.02
74790;BME280;63318;52.406;13.416;2022-09-17T02:51:41;99967.46;;;12.64;79.14
74790;BME280;63318;52.406;13.416;2022-09-17T02:54:17;99966.76;;;12.68;79.17
74790;BME280;63318;52.406;13.416;2022-09-17T02:56:54;99960.25;;;12.74;79.25
74790;BME280;63318;52.406;13.416;2022-09-17T02:59:28;99954.29;;;12.77;79.35
74790;BME280;63318;52.406;13.416;2022-09-17T03:02:01;99954.19;;;12.76;79.50
74790;BME280;63318;52.406;13.416;2022-09-17T03:04:32;99953.34;;;12.77;79.48
74790;BME280;63318;52.406;13.416;2022-09-17T03:07:05;99951.48;;;12.77;79.45
74790;BME280;63318;52.406;13.416;2022-09-17T03:09:34;99948.75;;;12.77;79.40
74790;BME280;63318;52.406;13.416;2022-09-17T03:12:03;99943.42;;;12.76;79.28
74790;BME280;63318;52.406;13.416;2022-09-17T03:14:32;99943.88;;;12.73;79.27
74790;BME280;63318;52.406;13.416;2022-09-17T03:17:01;99950.94;;;12.67;79.05
74790;BME280;63318;52.406;13.416;2022-09-17T03:19:30;99953.45;;;12.62;79.10
74790;BME280;63318;52.406;13.416;2022-09-17T03:21:58;99951.13;;;12.58;79.14
74790;BME280;63318;52.406;13.416;2022-09-17T03:24:26;99951.52;;;12.58;79.05
74790;BME280;63318;52.406;13.416;2022-09-17T03:26:54;99946.38;;;12.67;78.67
74790;BME280;63318;52.406;13.416;2022-09-17T03:29:23;99951.75;;;12.66;78.74
74790;BME280;63318;52.406;13.416;2022-09-17T03:31:51;99946.34;;;12.66;79.02
74790;BME280;63318;52.406;13.416;2022-09-17T03:34:19;99941.64;;;12.68;79.23
74790;BME280;63318;52.406;13.416;2022-09-17T03:36:47;99946.86;;;12.71;79.14
74790;BME280;63318;52.406;13.416;2022-09-17T03:39:15;99947.20;;;12.74;79.31
74790;BME280;63318;52.406;13.416;2022-09-17T03:41:44;99943.09;;;12.77;79.54
74790;BME280;63318;52.406;13.416;2022-09-17T03:44:12;99944.86;;;12.80;79.56
74790;BME280;63318;52.406;13.416;2022-09-17T03:46:40;99944.59;;;12.78;79.68
74790;BME280;63318;52.406;13.416;2022-09-17T03:49:08;99948.48;;;12.79;79.79
74790;BME280;63318;52.406;13.416;2022-09-17T03:51:36;99948.85;;;12.80;79.69
74790;BME280;63318;52.406;13.416;2022-09-17T03:54:05;99953.91;;;12.78;79.49
74790;BME280;63318;52.406;13.416;2022-09-17T03:56:33;99955.14;;;12.76;79.63
74790;BME280;63318;52.406;13.416;2022-09-17T03:59:02;99955.83;;;12.71;79.62
74790;BME280;63318;52.406;13.416;2022-09-17T04:01:30;99963.69;;;12.66;79.65
74790;BME280;63318;52.406;13.416;2022-09-17T04:03:58;99971.36;;;12.61;79.55
74790;BME280;63318;52.406;13.416;2022-09-17T04:06:26;99969.79;;;12.62;79.42
74790;BME280;63318;52.406;13.416;2022-09-17T04:08:54;99971.09;;;12.70;79.13
74790;BME280;63318;52.406;13.416;2022-09-17T04:11:23;99971.41;;;12.70;79.25
74790;BME280;63318;52.406;13.416;2022-09-17T04:13:51;99972.18;;;12.71;79.44
74790;BME280;63318;52.406;13.416;2022-09-17T04:16:19;99974.70;;;12.73;79.50
74790;BME280;63318;52.406;13.416;2022-09-17T04:18:47;99973.36;;;12.76;79.65
74790;BME280;63318;52.406;13.416;2022-09-17T04:21:15;99966.48;;;12.80;79.67
74790;BME280;63318;52.406;13.416;2022-09-17T04:23:43;99967.80;;;12.84;79.73
74790;BME280;63318;52.406;13.416;2022-09-17T04:26:12;99966.09;;;12.86;79.80
74790;BME280;63318;52.406;13.416;2022-09-17T04:28:40;99966.59;;;12.83;79.94
74790;BME280;63318;52.406;13.416;2022-09-17T04:31:08;99971.19;;;12.82;79.90
74790;BME280;63318;52.406;13.416;2022-09-17T04:33:36;99973.59;;;12.81;79.84
74790;BME280;63318;52.406;13.416;2022-09-17T04:36:05;99975.74;;;12.80;79.72
74790;BME280;63318;52.406;13.416;2022-09-17T04:38:33;99974.23;;;12.77;79.64
74790;BME280;63318;52.406;13.416;2022-09-17T04:41:01;99976.50;;;12.75;79.64
74790;BME280;63318;52.406;13.416;2022-09-17T04:43:29;99971.77;;;12.72;79.62
74790;BME280;63318;52.406;13.416;2022-09-17T04:45:57;99975.90;;;12.68;79.54
74790;BME280;63318;52.406;13.416;2022-09-17T04:48:26;99973.58;;;12.67;79.46
74790;BME280;63318;52.406;13.416;2022-09-17T04:50:54;99979.45;;;12.78;79.11
74790;BME280;63318;52.406;13.416;2022-09-17T04:53:22;99980.89;;;12.78;79.26
74790;BME280;63318;52.406;13.416;2022-09-17T04:55:50;99978.94;;;12.78;79.45
74790;BME280;63318;52.406;13.416;2022-09-17T04:58:19;99984.83;;;12.80;79.58
74790;BME280;63318;52.406;13.416;2022-09-17T05:00:47;99987.59;;;12.83;79.64
74790;BME280;63318;52.406;13.416;2022-09-17T05:03:15;99989.07;;;12.88;79.73
74790;BME280;63318;52.406;13.416;2022-09-17T05:05:43;99988.08;;;12.90;79.79
74790;BME280;63318;52.406;13.416;2022-09-17T05:08:12;99996.11;;;12.87;79.92
74790;BME280;63318;52.406;13.416;2022-09-17T05:10:40;99998.23;;;12.87;79.89
74790;BME280;63318;52.406;13.416;2022-09-17T05:13:08;99999.94;;;12.87;79.82
74790;BME280;63318;52.406;13.416;2022-09-17T05:15:36;100005.91;;;12.87;79.78
74790;BME280;63318;52.406;13.416;2022-09-17T05:18:05;100004.36;;;12.87;79.69
74790;BME280;63318;52.406;13.416;2022-09-17T05:20:33;100005.94;;;12.84;79.71
74790;BME280;63318;52.406;13.416;2022-09-17T05:23:01;100007.99;;;12.81;79.69
74790;BME280;63318;52.406;13.416;2022-09-17T05:25:29;100005.98;;;12.78;79.59
74790;BME280;63318;52.406;13.416;2022-09-17T05:27:57;100009.06;;;12.77;79.51
74790;BME280;63318;52.406;13.416;2022-09-17T05:30:26;100006.20;;;12.84;79.10
74790;BME280;63318;52.406;13.416;2022-09-17T05:33:01;100009.08;;;12.86;79.16
74790;BME280;63318;52.406;13.416;2022-09-17T05:35:30;100008.60;;;12.84;79.36
74790;BME280;63318;52.406;13.416;2022-09-17T05:38:00;100011.51;;;12.84;79.56
74790;BME280;63318;52.406;13.416;2022-09-17T05:40:29;100009.73;;;12.83;79.68
74790;BME280;63318;52.406;13.416;2022-09-17T05:43:02;100013.70;;;12.89;79.85
74790;BME280;63318;52.406;13.416;2022-09-17T05:45:31;100016.86;;;12.93;79.98
74790;BME280;63318;52.406;13.416;2022-09-17T05:48:00;100020.61;;;12.95;80.19
74790;BME280;63318;52.406;13.416;2022-09-17T05:50:29;100017.18;;;12.96;80.07
74790;BME280;63318;52.406;13.416;2022-09-17T05:53:00;100019.79;;;12.97;79.95
74790;BME280;63318;52.406;13.416;2022-09-17T05:55:30;100022.45;;;13.01;80.07
74790;BME280;63318;52.406;13.416;2022-09-17T05:57:58;100022.55;;;13.03;79.86
74790;BME280;63318;52.406;13.416;2022-09-17T06:00:26;100023.84;;;13.03;79.74
74790;BME280;63318;52.406;13.416;2022-09-17T06:02:57;100021.70;;;12.99;79.75
74790;BME280;63318;52.406;13.416;2022-09-17T06:05:26;100022.11;;;12.96;79.84
74790;BME280;63318;52.406;13.416;2022-09-17T06:07:54;100025.86;;;13.07;79.43
74790;BME280;63318;52.406;13.416;2022-09-17T06:10:22;100026.05;;;13.09;79.62
74790;BME280;63318;52.406;13.416;2022-09-17T06:12:56;100026.48;;;13.10;79.80
74790;BME280;63318;52.406;13.416;2022-09-17T06:15:24;100030.63;;;13.09;79.94
74790;BME280;63318;52.406;13.416;2022-09-17T06:17:53;100032.20;;;13.12;80.08
74790;BME280;63318;52.406;13.416;2022-09-17T06:20:21;100030.95;;;13.13;80.19
74790;BME280;63318;52.406;13.416;2022-09-17T06:22:56;100037.27;;;13.17;80.20
74790;BME280;63318;52.406;13.416;2022-09-17T06:25:25;100038.54;;;13.18;80.37
74790;BME280;63318;52.406;13.416;2022-09-17T06:27:53;100041.98;;;13.16;80.57
74790;BME280;63318;52.406;13.416;2022-09-17T06:30:21;100041.61;;;13.17;80.65
74790;BME280;63318;52.406;13.416;2022-09-17T06:32:49;100043.48;;;13.22;80.72
74790;BME280;63318;52.406;13.416;2022-09-17T06:35:17;100039.98;;;13.25;80.46
74790;BME280;63318;52.406;13.416;2022-09-17T06:37:46;100042.91;;;13.26;80.39
74790;BME280;63318;52.406;13.416;2022-09-17T06:40:14;100044.58;;;13.26;80.20
74790;BME280;63318;52.406;13.416;2022-09-17T06:42:42;100042.41;;;13.26;80.18
74790;BME280;63318;52.406;13.416;2022-09-17T06:45:11;100047.73;;;13.30;80.07
74790;BME280;63318;52.406;13.416;2022-09-17T06:47:39;100048.98;;;13.40;79.70
74790;BME280;63318;52.406;13.416;2022-09-17T06:50:08;100047.60;;;13.37;79.69
74790;BME280;63318;52.406;13.416;2022-09-17T06:52:36;100048.84;;;13.36;79.81
74790;BME280;63318;52.406;13.416;2022-09-17T06:55:06;100051.27;;;13.38;80.05
74790;BME280;63318;52.406;13.416;2022-09-17T06:57:34;100046.92;;;13.40;80.02
74790;BME280;63318;52.406;13.416;2022-09-17T07:00:03;100056.91;;;13.39;80.04
74790;BME280;63318;52.406;13.416;2022-09-17T07:02:31;100056.44;;;13.33;80.25
74790;BME280;63318;52.406;13.416;2022-09-17T07:04:59;100061.12;;;13.33;80.32
74790;BME280;63318;52.406;13.416;2022-09-17T07:07:28;100058.08;;;13.37;80.23
74790;BME280;63318;52.406;13.416;2022-09-17T07:09:56;100055.79;;;13.38;79.93
74790;BME280;63318;52.406;13.416;2022-09-17T07:12:25;100058.84;;;13.36;79.75
74790;BME280;63318;52.406;13.416;2022-09-17T07:14:53;100060.89;;;13.31;79.69
74790;BME280;63318;52.406;13.416;2022-09-17T07:17:21;100061.11;;;13.28;79.66
74790;BME280;63318;52.406;13.416;2022-09-17T07:19:49;100065.48;;;13.27;79.68
74790;BME280;63318;52.406;13.416;2022-09-17T07:22:17;100064.93;;;13.29;79.37
74790;BME280;63318;52.406;13.416;2022-09-17T07:24:45;100060.17;;;13.42;79.08
74790;BME280;63318;52.406;13.416;2022-09-17T07:27:14;100061.22;;;13.45;79.14
74790;BME280;63318;52.406;13.416;2022-09-17T07:29:42;100062.40;;;13.50;79.46
74790;BME280;63318;52.406;13.416;2022-09-17T07:32:10;100061.45;;;13.55;79.37
74790;BME280;63318;52.406;13.416;2022-09-17T07:34:38;100057.05;;;13.61;79.33
74790;BME280;63318;52.406;13.416;2022-09-17T07:37:07;100060.46;;;13.65;79.36
74790;BME280;63318;52.406;13.416;2022-09-17T07:39:35;100055.81;;;13.68;79.36
74790;BME280;63318;52.406;13.416;2022-09-17T07:42:04;100054.12;;;13.69;79.34
74790;BME280;63318;52.406;13.416;2022-09-17T07:44:32;100048.59;;;13.73;79.26
74790;BME280;63318;52.406;13.416;2022-09-17T07:47:00;100048.89;;;13.76;79.15
74790;BME280;63318;52.406;13.416;2022-09-17T07:49:28;100049.52;;;13.80;79.03
74790;BME280;63318;52.406;13.416;2022-09-17T07:51:56;100049.66;;;13.84;78.80
74790;BME280;63318;52.406;13.416;2022-09-17T07:54:25;100049.75;;;13.87;78.38
74790;BME280;63318;52.406;13.416;2022-09-17T07:56:53;100050.36;;;13.88;78.37
74790;BME280;63318;52.406;13.416;2022-09-17T07:59:21;100052.42;;;13.90;78.32
74790;BME280;63318;52.406;13.416;2022-09-17T08:01:49;100054.45;;;13.95;78.28
74790;BME280;63318;52.406;13.416;2022-09-17T08:04:17;100051.48;;;14.12;77.86
74790;BME280;63318;52.406;13.416;2022-09-17T08:06:46;100051.42;;;14.17;77.78
74790;BME280;63318;52.406;13.416;2022-09-17T08:09:15;100050.61;;;14.28;78.13
74790;BME280;63318;52.406;13.416;2022-09-17T08:11:44;100049.55;;;14.39;78.19
74790;BME280;63318;52.406;13.416;2022-09-17T08:14:13;100052.51;;;14.48;77.88
74790;BME280;63318;52.406;13.416;2022-09-17T08:16:42;100048.53;;;14.57;77.81
74790;BME280;63318;52.406;13.416;2022-09-17T08:19:11;100047.96;;;14.64;77.76
74790;BME280;63318;52.406;13.416;2022-09-17T08:21:39;100048.50;;;14.67;77.49
74790;BME280;63318;52.406;13.416;2022-09-17T08:24:07;100046.39;;;14.71;77.25
74790;BME280;63318;52.406;13.416;2022-09-17T08:26:36;100053.10;;;14.71;76.93
74790;BME280;63318;52.406;13.416;2022-09-17T08:29:04;100057.88;;;14.70;76.67
74790;BME280;63318;52.406;13.416;2022-09-17T08:31:32;100058.67;;;14.72;76.58
74790;BME280;63318;52.406;13.416;2022-09-17T08:34:00;100058.77;;;14.69;76.37
74790;BME280;63318;52.406;13.416;2022-09-17T08:36:29;100059.29;;;14.72;76.21
74790;BME280;63318;52.406;13.416;2022-09-17T08:38:57;100059.59;;;14.77;75.86
74790;BME280;63318;52.406;13.416;2022-09-17T08:41:30;100062.01;;;14.90;75.60
74790;BME280;63318;52.406;13.416;2022-09-17T08:44:12;100063.50;;;14.90;75.52
74790;BME280;63318;52.406;13.416;2022-09-17T08:46:48;100055.13;;;14.89;75.56
74790;BME280;63318;52.406;13.416;2022-09-17T08:49:31;100057.83;;;14.93;75.45
74790;BME280;63318;52.406;13.416;2022-09-17T08:52:15;100059.77;;;15.04;75.67
74790;BME280;63318;52.406;13.416;2022-09-17T08:54:56;100061.14;;;15.20;75.21
74790;BME280;63318;52.406;13.416;2022-09-17T08:57:31;100064.95;;;15.34;74.61
74790;BME280;63318;52.406;13.416;2022-09-17T09:00:08;100064.89;;;15.49;74.33
74790;BME280;63318;52.406;13.416;2022-09-17T09:02:49;100060.57;;;15.49;73.46
74790;BME280;63318;52.406;13.416;2022-09-17T09:05:28;100063.20;;;15.47;73.38
74790;BME280;63318;52.406;13.416;2022-09-17T09:08:01;100062.26;;;15.49;73.27
74790;BME280;63318;52.406;13.416;2022-09-17T09:10:37;100066.61;;;15.56;73.03
74790;BME280;63318;52.406;13.416;2022-09-17T09:13:11;100073.80;;;15.54;72.55
74790;BME280;63318;52.406;13.416;2022-09-17T09:15:44;100076.14;;;15.55;72.34
74790;BME280;63318;52.406;13.416;2022-09-17T09:18:18;100079.07;;;15.52;72.17
74790;BME280;63318;52.406;13.416;2022-09-17T09:20:51;100077.11;;;15.58;71.45
74790;BME280;63318;52.406;13.416;2022-09-17T09:23:24;100078.84;;;15.72;71.45
74790;BME280;63318;52.406;13.416;2022-09-17T09:25:59;100083.23;;;15.84;71.32
74790;BME280;63318;52.406;13.416;2022-09-17T09:28:40;100087.16;;;15.94;71.28
74790;BME280;63318;52.406;13.416;2022-09-17T09:31:26;100087.21;;;16.12;71.06
74790;BME280;63318;52.406;13.416;2022-09-17T09:34:02;100087.48;;;16.41;70.62
74790;BME280;63318;52.406;13.416;2022-09-17T09:36:32;100085.84;;;16.71;70.18
74790;BME280;63318;52.406;13.416;2022-09-17T09:39:03;100087.98;;;16.97;69.50
74790;BME280;63318;52.406;13.416;2022-09-17T09:41:39;100085.43;;;17.00;68.95
74790;BME280;63318;52.406;13.416;2022-09-17T09:44:12;100089.97;;;16.90;68.36
74790;BME280;63318;52.406;13.416;2022-09-17T09:47:01;100093.22;;;16.77;68.05
74790;BME280;63318;52.406;13.416;2022-09-17T09:49:44;100096.36;;;16.76;67.99
74790;BME280;63318;52.406;13.416;2022-09-17T09:52:30;100094.11;;;16.81;68.14
74790;BME280;63318;52.406;13.416;2022-09-17T09:55:14;100091.29;;;16.83;67.87
74790;BME280;63318;52.406;13.416;2022-09-17T09:57:46;100093.88;;;16.83;67.73
74790;BME280;63318;52.406;13.416;2022-09-17T10:00:28;100095.41;;;16.78;67.88
74790;BME280;63318;52.406;13.416;2022-09-17T10:03:02;100101.34;;;16.74;67.71
74790;BME280;63318;52.406;13.416;2022-09-17T10:05:31;100105.48;;;16.66;67.61
74790;BME280;63318;52.406;13.416;2022-09-17T10:08:00;100110.02;;;16.57;67.29
74790;BME280;63318;52.406;13.416;2022-09-17T10:10:40;100118.15;;;16.56;67.49
74790;BME280;63318;52.406;13.416;2022-09-17T10:13:20;100121.49;;;16.43;68.11
74790;BME280;63318;52.406;13.416;2022-09-17T10:15:48;100117.07;;;16.34;68.45
74790;BME280;63318;52.406;13.416;2022-09-17T10:18:19;100118.67;;;16.28;68.95
74790;BME280;63318;52.406;13.416;2022-09-17T10:20:55;100119.20;;;16.27;69.43
74790;BME280;63318;52.406;13.416;2022-09-17T10:23:25;100114.92;;;16.45;69.77
74790;BME280;63318;52.406;13.416;2022-09-17T10:25:54;100115.08;;;16.68;68.71
74790;BME280;63318;52.406;13.416;2022-09-17T10:28:30;100115.86;;;16.90;68.28
74790;BME280;63318;52.406;13.416;2022-09-17T10:31:01;100111.90;;;17.10;67.96
74790;BME280;63318;52.406;13.416;2022-09-17T10:33:32;100123.82;;;17.29;67.46
74790;BME280;63318;52.406;13.416;2022-09-17T10:36:03;100118.94;;;17.42;66.76
74790;BME280;63318;52.406;13.416;2022-09-17T10:38:34;100115.90;;;17.58;66.11
74790;BME280;63318;52.406;13.416;2022-09-17T10:41:17;100122.54;;;17.66;65.17
74790;BME280;63318;52.406;13.416;2022-09-17T10:43:47;100123.08;;;17.59;64.65
74790;BME280;63318;52.406;13.416;2022-09-17T10:46:17;100124.96;;;17.44;64.91
74790;BME280;63318;52.406;13.416;2022-09-17T10:48:57;100128.80;;;17.33;64.78
74790;BME280;63318;52.406;13.416;2022-09-17T10:51:32;100125.25;;;17.27;64.46
74790;BME280;63318;52.406;13.416;2022-09-17T10:54:13;100128.42;;;17.23;64.54
74790;BME280;63318;52.406;13.416;2022-09-17T10:56:48;100132.85;;;17.23;64.74
74790;BME280;63318;52.406;13.416;2022-09-17T10:59:36;100134.56;;;17.24;64.33
74790;BME280;63318;52.406;13.416;2022-09-17T11:02:19;100136.68;;;17.23;64.27
74790;BME280;63318;52.406;13.416;2022-09-17T11:04:56;100135.19;;;17.20;63.93
74790;BME280;63318;52.406;13.416;2022-09-17T11:07:33;100136.69;;;17.16;63.92
74790;BME280;63318;52.406;13.416;2022-09-17T11:10:14;100135.73;;;17.11;63.65
74790;BME280;63318;52.406;13.416;2022-09-17T11:12:55;100138.02;;;17.12;63.36
74790;BME280;63318;52.406;13.416;2022-09-17T11:15:35;100138.06;;;17.14;63.43
74790;BME280;63318;52.406;13.416;2022-09-17T11:21:27;100132.23;;;17.18;62.54
74790;BME280;63318;52.406;13.416;2022-09-17T11:24:10;100132.17;;;17.17;63.05
74790;BME280;63318;52.406;13.416;2022-09-17T11:26:51;100133.95;;;17.10;62.24
74790;BME280;63318;52.406;13.416;2022-09-17T11:29:35;100129.70;;;17.05;62.56
74790;BME280;63318;52.406;13.416;2022-09-17T11:32:13;100132.23;;;17.10;62.46
74790;BME280;63318;52.406;13.416;2022-09-17T11:34:53;100130.78;;;17.16;62.39
74790;BME280;63318;52.406;13.416;2022-09-17T11:37:27;100129.19;;;17.17;61.90
74790;BME280;63318;52.406;13.416;2022-09-17T11:40:01;100133.04;;;17.20;61.30
74790;BME280;63318;52.406;13.416;2022-09-17T11:42:36;100131.67;;;17.31;61.81
74790;BME280;63318;52.406;13.416;2022-09-17T11:45:12;100130.01;;;17.38;61.43
74790;BME280;63318;52.406;13.416;2022-09-17T11:47:46;100124.55;;;17.41;61.40
74790;BME280;63318;52.406;13.416;2022-09-17T11:50:23;100128.67;;;17.39;61.38
74790;BME280;63318;52.406;13.416;2022-09-17T11:53:02;100120.05;;;17.40;60.98
74790;BME280;63318;52.406;13.416;2022-09-17T11:55:36;100118.41;;;17.54;61.35
74790;BME280;63318;52.406;13.416;2022-09-17T11:58:13;100118.64;;;17.75;61.28
74790;BME280;63318;52.406;13.416;2022-09-17T12:00:47;100112.98;;;17.96;60.94
74790;BME280;63318;52.406;13.416;2022-09-17T12:03:22;100111.56;;;18.14;60.76
74790;BME280;63318;52.406;13.416;2022-09-17T12:05:55;100104.83;;;18.32;60.52
74790;BME280;63318;52.406;13.416;2022-09-17T12:08:26;100102.80;;;18.51;59.60
74790;BME280;63318;52.406;13.416;2022-09-17T12:11:03;100102.91;;;18.64;58.89
74790;BME280;63318;52.406;13.416;2022-09-17T12:13:38;100103.63;;;18.81;58.08
74790;BME280;63318;52.406;13.416;2022-09-17T12:16:17;100108.68;;;18.89;57.61
74790;BME280;63318;52.406;13.416;2022-09-17T12:18:54;100107.98;;;19.00;57.84
74790;BME280;63318;52.406;13.416;2022-09-17T12:21:29;100106.56;;;19.09;56.79
74790;BME280;63318;52.406;13.416;2022-09-17T12:24:06;100103.64;;;19.07;56.57
74790;BME280;63318;52.406;13.416;2022-09-17T12:26:54;100102.45;;;19.03;56.58
74790;BME280;63318;52.406;13.416;2022-09-17T12:29:38;100094.02;;;19.04;55.58
74790;BME280;63318;52.406;13.416;2022-09-17T12:32:26;100092.55;;;19.12;56.01
74790;BME280;63318;52.406;13.416;2022-09-17T12:35:01;100099.60;;;19.24;56.31
74790;BME280;63318;52.406;13.416;2022-09-17T12:37:36;100100.46;;;19.32;55.70
74790;BME280;63318;52.406;13.416;2022-09-17T12:40:15;100089.57;;;19.39;55.55
74790;BME280;63318;52.406;13.416;2022-09-17T12:43:08;100086.64;;;19.48;55.56
74790;BME280;63318;52.406;13.416;2022-09-17T12:45:48;100084.86;;;19.45;54.91
74790;BME280;63318;52.406;13.416;2022-09-17T12:48:34;100080.50;;;19.42;55.34
74790;BME280;63318;52.406;13.416;2022-09-17T12:51:17;100073.66;;;19.48;55.20
74790;BME280;63318;52.406;13.416;2022-09-17T12:54:01;100075.22;;;19.55;53.32
74790;BME280;63318;52.406;13.416;2022-09-17T12:56:47;100071.04;;;19.60;53.53
74790;BME280;63318;52.406;13.416;2022-09-17T12:59:18;100069.50;;;19.55;53.43
74790;BME280;63318;52.406;13.416;2022-09-17T13:01:51;100068.77;;;19.46;53.52
74790;BME280;63318;52.406;13.416;2022-09-17T13:04:35;100069.36;;;19.33;53.36
74790;BME280;63318;52.406;13.416;2022-09-17T13:07:25;100071.67;;;19.21;53.61
74790;BME280;63318;52.406;13.416;2022-09-17T13:10:07;100069.54;;;19.05;53.57
74790;BME280;63318;52.406;13.416;2022-09-17T13:12:41;100078.02;;;18.88;53.56
74790;BME280;63318;52.406;13.416;2022-09-17T13:15:50;100083.29;;;18.77;53.53